createdAt,value
2018-07-08T00:00:28.651Z,4.90
2018-07-08T00:03:05.830Z,3.93
2018-07-08T00:05:41.892Z,3.37
2018-07-08T00:08:18.053Z,3.30
2018-07-08T00:10:56.058Z,5.83
2018-07-08T00:13:29.532Z,5.60
2018-07-08T00:16:04.233Z,4.37
2018-07-08T00:18:39.219Z,2.60
2018-07-08T00:21:14.897Z,4.40
2018-07-08T00:23:51.277Z,5.87
2018-07-08T00:26:24.744Z,5.67
2018-07-08T00:29:01.298Z,3.67
2018-07-08T00:31:33.863Z,4.85
2018-07-08T00:34:08.112Z,4.00
2018-07-08T00:36:41.865Z,5.12
2018-07-08T00:39:15.322Z,6.90
2018-07-08T00:41:48.109Z,5.33
2018-07-08T00:44:21.792Z,7.30
2018-07-08T00:46:54.288Z,4.93
2018-07-08T00:49:27.911Z,4.10
2018-07-08T00:52:00.613Z,7.47
2018-07-08T00:54:33.085Z,5.43
2018-07-08T00:57:06.513Z,5.30
2018-07-08T00:59:44.794Z,4.23
2018-07-08T01:02:18.661Z,4.87
2018-07-08T01:04:51.131Z,5.33
2018-07-08T01:07:25.229Z,5.67
2018-07-08T01:09:57.722Z,5.25
2018-07-08T01:12:32.357Z,6.43
2018-07-08T01:15:09.085Z,7.10
2018-07-08T01:17:43.805Z,7.33
2018-07-08T01:20:16.265Z,5.30
2018-07-08T01:22:51.977Z,4.90
2018-07-08T01:25:46.657Z,7.10
2018-07-08T01:28:19.430Z,5.87
2018-07-08T01:30:52.357Z,6.83
2018-07-08T01:33:26.170Z,6.27
2018-07-08T01:35:59.849Z,6.67
2018-07-08T01:38:32.898Z,6.17
2018-07-08T01:41:06.496Z,6.00
2018-07-08T01:43:40.263Z,4.87
2018-07-08T01:46:13.371Z,7.23
2018-07-08T01:48:45.963Z,5.20
2018-07-08T01:51:18.494Z,4.23
2018-07-08T01:53:53.086Z,5.80
2018-07-08T01:56:26.185Z,5.60
2018-07-08T01:58:59.230Z,6.43
2018-07-08T02:01:32.146Z,6.77
2018-07-08T02:04:06.921Z,6.63
2018-07-08T02:06:43.080Z,6.35
2018-07-08T02:09:17.297Z,7.90
2018-07-08T02:11:53.822Z,7.33
2018-07-08T02:14:27.953Z,8.43
2018-07-08T02:17:01.672Z,8.67
2018-07-08T02:19:38.223Z,6.57
2018-07-08T02:22:12.136Z,6.63
2018-07-08T02:24:44.969Z,7.37
2018-07-08T02:27:18.938Z,5.03
2018-07-08T02:29:52.575Z,5.90
2018-07-08T02:32:28.672Z,7.33
2018-07-08T02:35:02.081Z,5.73
2018-07-08T02:37:35.013Z,6.27
2018-07-08T02:40:08.204Z,12.00
2018-07-08T02:42:41.843Z,6.17
2018-07-08T02:45:16.521Z,6.30
2018-07-08T02:47:51.174Z,7.03
2018-07-08T02:50:24.355Z,6.07
2018-07-08T02:52:56.973Z,6.32
2018-07-08T02:55:29.770Z,4.63
2018-07-08T02:58:03.045Z,6.93
2018-07-08T03:00:35.527Z,7.50
2018-07-08T03:03:08.503Z,10.33
2018-07-08T03:05:41.083Z,7.90
2018-07-08T03:08:13.659Z,7.93
2018-07-08T03:10:46.675Z,6.13
2018-07-08T03:13:19.415Z,6.40
2018-07-08T03:15:52.955Z,7.43
2018-07-08T03:18:26.639Z,8.38
2018-07-08T03:20:59.098Z,8.50
2018-07-08T03:23:31.783Z,9.17
2018-07-08T03:26:04.666Z,7.10
2018-07-08T03:28:37.306Z,7.50
2018-07-08T03:31:10.365Z,6.20
2018-07-08T03:33:43.398Z,7.90
2018-07-08T03:36:15.838Z,7.07
2018-07-08T03:38:48.466Z,7.23
2018-07-08T03:41:21.228Z,10.03
2018-07-08T03:43:53.865Z,7.63
2018-07-08T03:46:26.634Z,6.13
2018-07-08T03:49:00.684Z,8.57
2018-07-08T03:51:33.198Z,6.93
2018-07-08T03:54:22.765Z,6.43
2018-07-08T03:56:55.345Z,7.07
2018-07-08T03:59:27.927Z,9.37
2018-07-08T04:02:00.394Z,11.07
2018-07-08T04:04:36.132Z,8.60
2018-07-08T04:07:12.397Z,8.80
2018-07-08T04:09:45.385Z,11.03
2018-07-08T04:12:17.886Z,7.40
2018-07-08T04:14:50.519Z,8.67
2018-07-08T04:17:23.362Z,7.97
2018-07-08T04:19:55.785Z,8.37
2018-07-08T04:22:29.149Z,5.83
2018-07-08T04:25:02.230Z,9.80
2018-07-08T04:27:34.740Z,9.67
2018-07-08T04:30:07.505Z,10.73
2018-07-08T04:32:41.464Z,9.43
2018-07-08T04:35:13.916Z,10.65
2018-07-08T04:37:46.481Z,11.43
2018-07-08T04:40:19.511Z,8.73
2018-07-08T04:42:52.045Z,10.18
2018-07-08T04:45:24.643Z,12.07
2018-07-08T04:47:58.456Z,12.23
2018-07-08T04:50:30.969Z,10.73
2018-07-08T04:53:03.490Z,9.43
2018-07-08T04:55:36.334Z,15.33
2018-07-08T04:58:08.754Z,8.67
2018-07-08T05:00:41.388Z,14.45
2018-07-08T05:03:14.208Z,9.93
2018-07-08T05:05:46.687Z,13.83
2018-07-08T05:08:19.266Z,9.50
2018-07-08T05:10:52.068Z,10.10
2018-07-08T05:13:24.713Z,11.30
2018-07-08T05:15:57.299Z,12.23
2018-07-08T05:18:31.767Z,11.67
2018-07-08T05:21:05.514Z,12.13
2018-07-08T05:23:38.045Z,12.53
2018-07-08T05:26:11.581Z,10.30
2018-07-08T05:28:43.993Z,9.90
2018-07-08T05:31:18.833Z,9.03
2018-07-08T05:33:51.628Z,9.03
2018-07-08T05:36:24.168Z,15.27
2018-07-08T05:38:57.768Z,10.90
2018-07-08T05:41:33.317Z,9.40
2018-07-08T05:44:06.544Z,13.13
2018-07-08T05:46:39.240Z,8.13
2018-07-08T05:49:12.201Z,9.23
2018-07-08T05:51:45.025Z,9.00
2018-07-08T05:54:17.571Z,8.57
2018-07-08T05:56:50.351Z,8.07
2018-07-08T05:59:23.429Z,13.67
2018-07-08T06:01:58.450Z,12.37
2018-07-08T06:04:32.250Z,10.43
2018-07-08T06:07:05.306Z,8.73
2018-07-08T06:09:38.041Z,11.70
2018-07-08T06:12:12.469Z,10.23
2018-07-08T06:14:44.876Z,9.77
2018-07-08T06:17:17.478Z,8.00
2018-07-08T06:19:51.097Z,9.70
2018-07-08T06:22:28.653Z,7.07
2018-07-08T06:25:01.339Z,8.37
2018-07-08T06:27:35.268Z,6.20
2018-07-08T06:30:07.984Z,7.77
2018-07-08T06:32:40.607Z,7.20
2018-07-08T06:35:13.531Z,11.83
2018-07-08T06:37:46.716Z,5.83
2018-07-08T06:40:20.390Z,8.63
2018-07-08T06:42:53.474Z,6.57
2018-07-08T06:45:25.950Z,7.33
2018-07-08T06:47:59.436Z,5.30
2018-07-08T06:50:33.149Z,5.13
2018-07-08T06:53:07.566Z,8.63
2018-07-08T06:55:40.685Z,6.83
2018-07-08T06:58:15.433Z,6.95
2018-07-08T07:00:48.022Z,10.07
2018-07-08T07:03:20.758Z,4.93
2018-07-08T07:05:56.238Z,6.90
2018-07-08T07:08:39.693Z,3.93
2018-07-08T07:11:14.488Z,5.57
2018-07-08T07:13:51.556Z,4.87
2018-07-08T07:16:25.530Z,3.37
2018-07-08T07:18:59.171Z,4.93
2018-07-08T07:21:38.851Z,5.77
2018-07-08T07:24:18.177Z,6.63
2018-07-08T07:26:53.371Z,4.63
2018-07-08T07:29:26.244Z,5.63
2018-07-08T07:32:03.473Z,3.73
2018-07-08T07:34:37.939Z,4.87
2018-07-08T07:37:21.660Z,4.37
2018-07-08T07:40:26.677Z,3.10
2018-07-08T07:43:01.468Z,4.37
2018-07-08T07:45:37.881Z,3.00
2018-07-08T07:48:22.181Z,5.30
2018-07-08T07:50:55.419Z,5.07
2018-07-08T07:53:33.212Z,6.67
2018-07-08T07:56:08.592Z,6.03
2018-07-08T07:58:42.884Z,3.67
2018-07-08T08:01:17.973Z,5.03
2018-07-08T08:03:50.646Z,5.73
2018-07-08T08:06:23.795Z,3.47
2018-07-08T08:08:57.595Z,5.60
2018-07-08T08:11:32.657Z,5.77
2018-07-08T08:14:08.302Z,7.83
2018-07-08T08:16:42.644Z,5.13
2018-07-08T08:19:21.361Z,3.13
2018-07-08T08:21:55.669Z,7.23
2018-07-08T08:24:33.470Z,2.63
2018-07-08T08:27:13.533Z,4.83
2018-07-08T08:29:58.799Z,5.40
2018-07-08T08:32:40.649Z,3.57
2018-07-08T08:35:22.095Z,5.23
2018-07-08T08:37:57.357Z,4.40
2018-07-08T08:40:32.929Z,6.23
2018-07-08T08:43:16.248Z,3.77
2018-07-08T08:45:49.572Z,1.67
2018-07-08T08:48:25.196Z,2.37
2018-07-08T08:51:02.593Z,4.17
2018-07-08T08:53:39.745Z,4.30
2018-07-08T08:56:14.162Z,2.37
2018-07-08T08:58:54.802Z,4.03
2018-07-08T09:01:40.895Z,2.63
2018-07-08T09:04:17.694Z,5.03
2018-07-08T09:06:52.789Z,4.87
2018-07-08T09:09:26.665Z,2.27
2018-07-08T09:12:02.429Z,3.87
2018-07-08T09:14:43.941Z,6.10
2018-07-08T09:17:18.369Z,2.70
2018-07-08T09:19:52.760Z,2.73
2018-07-08T09:22:31.625Z,4.23
2018-07-08T09:25:09.750Z,4.53
2018-07-08T09:27:44.990Z,3.13
2018-07-08T09:30:19.966Z,2.43
2018-07-08T09:32:53.035Z,3.77
2018-07-08T09:35:27.722Z,2.77
2018-07-08T09:38:05.570Z,3.20
2018-07-08T09:40:43.646Z,2.67
2018-07-08T09:43:19.663Z,3.23
2018-07-08T09:45:56.495Z,4.07
2018-07-08T09:48:34.410Z,5.13
2018-07-08T09:51:07.884Z,4.47
2018-07-08T09:53:44.138Z,3.57
2018-07-08T09:56:23.365Z,2.63
2018-07-08T09:58:59.234Z,4.20
2018-07-08T10:01:40.111Z,4.20
2018-07-08T10:04:16.092Z,3.12
2018-07-08T10:06:55.596Z,4.07
2018-07-08T10:09:39.479Z,3.47
2018-07-08T10:12:23.792Z,3.13
2018-07-08T10:15:00.598Z,3.17
2018-07-08T10:17:41.691Z,3.40
2018-07-08T10:20:17.674Z,3.77
2018-07-08T10:22:55.705Z,2.27
2018-07-08T10:25:40.250Z,3.87
2018-07-08T10:28:21.585Z,2.10
2018-07-08T10:31:12.854Z,3.67
2018-07-08T10:33:58.759Z,4.80
2018-07-08T10:36:43.236Z,3.40
2018-07-08T10:39:21.230Z,3.17
2018-07-08T10:42:01.491Z,2.37
2018-07-08T10:44:44.061Z,4.10
2018-07-08T10:47:28.810Z,3.53
2018-07-08T10:50:15.834Z,2.60
2018-07-08T10:52:53.174Z,2.80
2018-07-08T10:55:28.412Z,5.10
2018-07-08T10:58:06.682Z,2.93
2018-07-08T11:00:44.290Z,4.87
2018-07-08T11:03:21.473Z,4.87
2018-07-08T11:06:18.652Z,2.83
2018-07-08T11:09:09.566Z,2.10
2018-07-08T11:11:55.148Z,3.27
2018-07-08T11:14:53.210Z,1.80
2018-07-08T11:17:49.435Z,2.83
2018-07-08T11:20:30.190Z,2.73
2018-07-08T11:23:35.118Z,2.90
2018-07-08T11:26:18.510Z,3.93
2018-07-08T11:29:16.685Z,3.40
2018-07-08T11:31:54.277Z,3.00
2018-07-08T11:34:43.177Z,3.90
2018-07-08T11:37:29.343Z,2.22
2018-07-08T11:40:10.128Z,3.50
2018-07-08T11:42:46.718Z,2.33
2018-07-08T11:45:33.630Z,5.37
2018-07-08T11:48:17.599Z,4.23
2018-07-08T11:50:58.089Z,3.60
2018-07-08T11:53:33.317Z,5.53
2018-07-08T11:56:09.547Z,4.30
2018-07-08T11:58:54.963Z,5.67
2018-07-08T12:01:30.247Z,3.47
2018-07-08T12:04:11.095Z,3.93
2018-07-08T12:06:53.298Z,3.92
2018-07-08T12:09:45.690Z,3.07
2018-07-08T12:12:36.884Z,4.83
2018-07-08T12:15:20.622Z,5.12
2018-07-08T12:17:57.990Z,3.87
2018-07-08T12:20:41.349Z,4.68
2018-07-08T12:23:15.151Z,3.17
2018-07-08T12:25:50.744Z,3.77
2018-07-08T12:28:28.173Z,2.87
2018-07-08T12:31:01.400Z,3.97
2018-07-08T12:33:47.250Z,4.90
2018-07-08T12:36:21.177Z,3.70
2018-07-08T12:38:56.755Z,3.62
2018-07-08T12:41:38.336Z,3.67
2018-07-08T12:44:19.831Z,2.43
2018-07-08T12:47:01.378Z,7.03
2018-07-08T12:49:47.395Z,3.40
2018-07-08T12:52:22.513Z,5.33
2018-07-08T12:55:00.436Z,3.03
2018-07-08T12:57:37.263Z,6.03
2018-07-08T13:00:17.012Z,4.65
2018-07-08T13:03:01.563Z,3.62
2018-07-08T13:05:43.821Z,4.20
2018-07-08T13:08:22.834Z,5.07
2018-07-08T13:11:01.873Z,4.07
2018-07-08T13:13:39.538Z,3.23
2018-07-08T13:16:15.006Z,3.40
2018-07-08T13:18:50.329Z,3.57
2018-07-08T13:21:26.165Z,4.03
2018-07-08T13:24:02.452Z,3.90
2018-07-08T13:26:42.515Z,4.07
2018-07-08T13:29:20.381Z,3.63
2018-07-08T13:32:00.660Z,4.67
2018-07-08T13:34:38.485Z,5.43
2018-07-08T13:37:14.508Z,3.33
2018-07-08T13:39:48.754Z,4.20
2018-07-08T13:42:31.798Z,4.67
2018-07-08T13:45:12.519Z,3.53
2018-07-08T13:47:48.267Z,2.10
2018-07-08T13:50:21.826Z,3.67
2018-07-08T13:53:02.235Z,2.80
2018-07-08T13:55:37.360Z,5.40
2018-07-08T13:58:13.754Z,3.77
2018-07-08T14:00:53.133Z,3.83
2018-07-08T14:03:30.331Z,4.23
2018-07-08T14:06:10.802Z,3.13
2018-07-08T14:08:49.631Z,3.87
2018-07-08T14:11:25.182Z,4.47
2018-07-08T14:14:01.506Z,4.30
2018-07-08T14:16:35.865Z,3.30
2018-07-08T14:19:13.570Z,2.27
2018-07-08T14:21:50.855Z,4.87
2018-07-08T14:24:25.281Z,4.90
2018-07-08T14:26:58.925Z,2.53
2018-07-08T14:29:35.274Z,3.10
2018-07-08T14:32:10.231Z,3.40
2018-07-08T14:34:44.352Z,3.90
2018-07-08T14:37:19.468Z,3.40
2018-07-08T14:39:56.065Z,2.63
2018-07-08T14:42:33.009Z,2.57
2018-07-08T14:45:10.647Z,3.17
2018-07-08T14:47:47.636Z,4.60
2018-07-08T14:50:20.125Z,2.75
2018-07-08T14:52:54.178Z,2.63
2018-07-08T14:55:30.947Z,3.43
2018-07-08T14:58:05.802Z,3.93
2018-07-08T15:00:44.006Z,2.27
2018-07-08T15:03:19.527Z,1.50
2018-07-08T15:05:53.389Z,3.60
2018-07-08T15:08:27.612Z,3.30
2018-07-08T15:11:03.923Z,2.50
2018-07-08T15:13:39.480Z,4.37
2018-07-08T15:16:12.786Z,3.30
2018-07-08T15:18:51.730Z,2.17
2018-07-08T15:21:27.281Z,2.07
2018-07-08T15:24:01.451Z,1.83
2018-07-08T15:26:40.010Z,3.63
2018-07-08T15:29:21.790Z,3.30
2018-07-08T15:31:59.451Z,2.73
2018-07-08T15:34:36.672Z,2.57
2018-07-08T15:37:14.169Z,2.97
2018-07-08T15:39:49.077Z,5.10
2018-07-08T15:42:23.252Z,4.17
2018-07-08T15:45:00.357Z,2.33
2018-07-08T15:47:41.050Z,3.43
2018-07-08T15:50:22.508Z,3.80
2018-07-08T15:52:59.915Z,3.87
2018-07-08T15:55:42.495Z,3.67
2018-07-08T15:58:19.373Z,2.30
2018-07-08T16:00:55.867Z,1.60
2018-07-08T16:03:31.010Z,2.27
2018-07-08T16:06:11.267Z,1.77
2018-07-08T16:08:52.987Z,2.33
2018-07-08T16:11:30.554Z,2.77
2018-07-08T16:14:08.541Z,2.13
2018-07-08T16:16:45.530Z,4.33
2018-07-08T16:19:23.449Z,2.53
2018-07-08T16:22:00.972Z,3.00
2018-07-08T16:24:37.119Z,2.60
2018-07-08T16:27:14.505Z,2.67
2018-07-08T16:29:50.692Z,3.60
2018-07-08T16:32:27.630Z,3.23
2018-07-08T16:35:06.208Z,5.43
2018-07-08T16:37:56.855Z,3.27
2018-07-08T16:40:32.688Z,3.57
2018-07-08T16:43:14.118Z,4.20
2018-07-08T16:45:51.348Z,2.43
2018-07-08T16:48:30.409Z,3.90
2018-07-08T16:51:09.503Z,4.87
2018-07-08T16:53:44.838Z,2.03
2018-07-08T16:56:25.813Z,1.97
2018-07-08T16:59:06.438Z,4.43
2018-07-08T17:01:42.632Z,3.75
2018-07-08T17:04:21.585Z,2.80
2018-07-08T17:07:07.834Z,4.47
2018-07-08T17:09:52.587Z,5.00
2018-07-08T17:12:32.331Z,2.67
2018-07-08T17:15:07.070Z,3.03
2018-07-08T17:17:42.825Z,1.93
2018-07-08T17:20:21.862Z,3.87
2018-07-08T17:22:59.203Z,1.67
2018-07-08T17:25:33.999Z,2.70
2018-07-08T17:28:22.318Z,5.37
2018-07-08T17:30:57.631Z,2.83
2018-07-08T17:33:35.563Z,3.03
2018-07-08T17:36:10.820Z,2.33
2018-07-08T17:38:46.556Z,3.63
2018-07-08T17:41:21.572Z,5.77
2018-07-08T17:43:56.450Z,3.15
2018-07-08T17:46:31.477Z,3.25
2018-07-08T17:49:09.313Z,4.30
2018-07-08T17:51:51.228Z,3.77
2018-07-08T17:54:24.549Z,2.43
2018-07-08T17:57:00.657Z,2.93
2018-07-08T17:59:36.753Z,5.33
2018-07-08T18:02:21.792Z,2.80
2018-07-08T18:04:57.997Z,2.23
2018-07-08T18:07:41.402Z,2.27
2018-07-08T18:10:16.890Z,1.80
2018-07-08T18:12:57.492Z,2.07
2018-07-08T18:15:41.561Z,2.63
2018-07-08T18:18:15.063Z,3.30
2018-07-08T18:20:53.584Z,5.10
2018-07-08T18:23:32.527Z,2.97
2018-07-08T18:26:20.574Z,1.80
2018-07-08T18:29:03.667Z,3.93
2018-07-08T18:31:40.427Z,2.30
2018-07-08T18:34:15.769Z,2.17
2018-07-08T18:36:53.911Z,2.87
2018-07-08T18:39:31.650Z,3.97
2018-07-08T18:42:12.576Z,5.13
2018-07-08T18:44:48.373Z,3.23
2018-07-08T18:47:39.974Z,3.37
2018-07-08T18:50:17.788Z,3.47
2018-07-08T18:52:52.634Z,1.33
2018-07-08T18:55:27.837Z,2.00
2018-07-08T18:58:05.460Z,2.17
2018-07-08T19:00:39.628Z,2.78
2018-07-08T19:03:18.344Z,4.10
2018-07-08T19:05:53.161Z,2.72
2018-07-08T19:08:28.279Z,3.10
2018-07-08T19:11:18.769Z,4.10
2018-07-08T19:13:52.356Z,2.40
2018-07-08T19:16:26.474Z,2.37
2018-07-08T19:19:03.213Z,4.57
2018-07-08T19:21:44.576Z,2.80
2018-07-08T19:24:24.769Z,3.80
2018-07-08T19:27:05.656Z,2.47
2018-07-08T19:29:44.169Z,2.87
2018-07-08T19:32:18.777Z,1.83
2018-07-08T19:34:55.585Z,2.30
2018-07-08T19:37:30.970Z,3.05
2018-07-08T19:40:06.953Z,2.33
2018-07-08T19:42:42.175Z,2.93
2018-07-08T19:45:22.034Z,2.80
2018-07-08T19:48:05.307Z,3.57
2018-07-08T19:50:43.494Z,3.40
2018-07-08T19:53:17.328Z,3.63
2018-07-08T19:55:53.028Z,3.10
2018-07-08T19:58:28.355Z,2.73
2018-07-08T20:01:03.218Z,3.57
2018-07-08T20:03:44.265Z,1.93
2018-07-08T20:06:36.749Z,6.63
2018-07-08T20:09:23.684Z,3.23
2018-07-08T20:12:02.569Z,5.47
2018-07-08T20:14:44.993Z,3.10
2018-07-08T20:17:31.074Z,2.55
2018-07-08T20:20:10.731Z,3.70
2018-07-08T20:22:44.573Z,2.23
2018-07-08T20:25:20.814Z,3.23
2018-07-08T20:27:57.864Z,3.80
2018-07-08T20:30:36.720Z,3.37
2018-07-08T20:33:11.510Z,3.77
2018-07-08T20:35:44.908Z,3.20
2018-07-08T20:38:23.003Z,2.83
2018-07-08T20:41:04.073Z,2.70
2018-07-08T20:43:51.570Z,2.53
2018-07-08T20:46:42.592Z,3.93
2018-07-08T20:49:42.545Z,2.63
2018-07-08T20:52:22.759Z,6.07
2018-07-08T20:55:05.178Z,8.93
2018-07-08T20:57:48.237Z,4.93
2018-07-08T21:00:21.701Z,3.50
2018-07-08T21:02:55.853Z,5.20
2018-07-08T21:05:33.827Z,3.03
2018-07-08T21:08:11.861Z,4.90
2018-07-08T21:10:51.590Z,4.03
2018-07-08T21:13:31.485Z,2.63
2018-07-08T21:16:07.653Z,3.93
2018-07-08T21:18:42.687Z,5.63
2018-07-08T21:21:18.931Z,3.00
2018-07-08T21:23:52.600Z,5.57
2018-07-08T21:26:27.664Z,6.00
2018-07-08T21:29:02.760Z,7.33
2018-07-08T21:31:39.002Z,2.47
2018-07-08T21:34:13.658Z,3.53
2018-07-08T21:36:47.175Z,2.13
2018-07-08T21:39:22.313Z,3.30
2018-07-08T21:41:56.573Z,4.67
2018-07-08T21:44:34.988Z,3.60
2018-07-08T21:47:11.487Z,3.07
2018-07-08T21:49:46.028Z,4.73
2018-07-08T21:52:20.363Z,5.37
2018-07-08T21:54:53.499Z,8.03
2018-07-08T21:57:28.572Z,4.00
2018-07-08T22:00:06.914Z,5.67
2018-07-08T22:02:58.429Z,4.40
2018-07-08T22:05:31.836Z,4.03
2018-07-08T22:08:07.320Z,6.00
2018-07-08T22:10:52.079Z,3.78
2018-07-08T22:13:26.733Z,3.60
2018-07-08T22:16:04.282Z,2.77
2018-07-08T22:18:41.292Z,5.27
2018-07-08T22:21:30.687Z,4.47
2018-07-08T22:24:26.314Z,2.28
2018-07-08T22:27:00.303Z,3.53
2018-07-08T22:29:36.450Z,4.33
2018-07-08T22:32:11.645Z,6.47
2018-07-08T22:34:45.458Z,6.47
2018-07-08T22:37:21.906Z,3.50
2018-07-08T22:39:58.410Z,5.57
2018-07-08T22:42:32.604Z,2.97
2018-07-08T22:45:13.157Z,3.40
2018-07-08T22:47:46.489Z,4.30
2018-07-08T22:50:19.039Z,3.70
2018-07-08T22:52:56.371Z,5.33
2018-07-08T22:55:30.975Z,4.70
2018-07-08T22:58:06.513Z,5.73
2018-07-08T23:01:02.638Z,4.23
2018-07-08T23:03:58.045Z,4.43
2018-07-08T23:06:32.996Z,3.12
2018-07-08T23:09:09.657Z,3.65
2018-07-08T23:11:43.141Z,4.07
2018-07-08T23:14:16.290Z,3.07
2018-07-08T23:16:56.582Z,4.53
2018-07-08T23:19:29.929Z,4.37
2018-07-08T23:22:03.777Z,5.20
2018-07-08T23:24:38.841Z,2.63
2018-07-08T23:27:14.271Z,4.53
2018-07-08T23:29:48.969Z,5.50
2018-07-08T23:32:25.685Z,3.37
2018-07-08T23:34:59.609Z,4.33
2018-07-08T23:37:42.405Z,3.67
2018-07-08T23:40:18.669Z,4.07
2018-07-08T23:42:51.569Z,4.80
2018-07-08T23:45:25.154Z,3.47
2018-07-08T23:47:57.796Z,4.17
2018-07-08T23:50:32.110Z,3.25
2018-07-08T23:53:04.786Z,4.73
2018-07-08T23:55:37.297Z,4.93
2018-07-08T23:58:10.034Z,6.27
